Nenana, Alaska
Current Conditions -  °F | °C
As of 6:53 AM on Thursday 27 Nov 2014 (Local Time) from PANN Reporting Station
Clear Clear  
Wind Chill: -9°   Ceiling: Unl
Heat Index: -9°   Visibility: 10mi
Dew Point: -15°   Wind: 0mph
Humidity: 75%   Direction: NA
Pressure: 30.37"   Gusts: NA
Location:  64.56°N, 149.1°W
Report Text: PANN 271553Z AUTO 00000KT 10SM CLR M23/M26 A3037 RMK AO2 SLP300 T12281261 TSNO
Loading
Personal Weather Stations






























Interactive Weather Map New forecast layout! Learn more

10-Day Weather Forecast

Advertisements
Track Severe Weather on mobile